Airfield :
LOGIN :

Register | Disclaimer

   EN    FR    IT 

 










Legend :    VFR   Marginal VFR   IFR   Intensive IFR   Very Intensive IFR
Visi :
Ceiling :
>= 8 km
>= 3000ft
5 to 8 km
1000 to 3000 ft
1500m to 5 km
500 to 1000 ft
800 to 1500m
200 to 500 ft
< 800m
< 200 ft
Symbols :   Thunderstorms  Fog  Heavy snow  Heavy precipitations  Wind > 20 kt
SIGMETs :     Misc.  Thunderstorms  Icing  Turbulence  Mountain Waves  Volcanic Ashes







- Airport Elevation : 327 ft
- IATA code : BHX
- Download approach charts


EGBB - Birmingham

CURRENT METAR :
  • 271220Z 07010KT 040V110 CAVOK 19/11 Q1030

EXPIRED METARs :
  • 271150Z 08011KT 050V110 CAVOK 19/11 Q1031
  • 271120Z 07010KT 040V170 CAVOK 18/11 Q1031
  • 271050Z 07010KT 020V110 CAVOK 17/10 Q1031
  • 271020Z 07011KT CAVOK 16/10 Q1031
  • 270950Z 05009KT 010V090 9999 FEW024 16/10 Q1031

TAF TAF EGBB
Valid from the 27 at 12:00 until the 28 at 12:00 UTC


271053Z 2712/2812 07012KT CAVOK
TEMPO 2723/2808 FEW007 BKN011
PROB30
TEMPO 2723/2807 BKN006
ATIS : +44 121 780 0910
No reported NOTAMs for that airfield.
1 SIGMET reported for the London FIR (EGTT) :
 
Severe turbulence
EGTT SIGMET 07 VALID 271100/271500 EGRR
EGTT LONDON FIR SEV TURB FCST S OF LINE N5035 W00800 - N5109 E00200 SFC/FL030 STNR NC=



MET'MAP, your aeronautical weather chart ! - Copyright ORBIFLY December 2007 - Disclaimer

ORBIFLY MET'MAP TEAM :

Programming & Development : Alexandra Zaïnal
Concept & Development : Baudouin d'Aumeries
Co-Development & Prog : Marc-Olivier Méhu
Technical & hardware support : Manuel Goepfert

Contact : metmap@orbifly.com




SOURCES & CREDITS :

   NOAA